Siirt, Turkey

5:14 PM EEST on September 26, 2016 (GMT +0300)
Siirt | | Change Station

Elev 2001 ft 37.98 °N, 41.84 °E | Updated 24 minutes ago

Partly Cloudy
Partly Cloudy
82 °F
Feels Like 82 °F
N
2
Wind Variable Wind from Variable

Today
High -- | Low -- °F
--% Chance of Precip.
Yesterday
High -- | Low -- °F
Precip. -- in
Pressure 29.92 in
Visibility 6.2 miles
Clouds Few 4000 ft
Dew Point 36 °F
Humidity 19%
Rainfall 0.00 in
Snow Depth Not available.
6:03 AM 6:02 PM
Waning Crescent, 18% visible
METAR LTCL 261350Z VRB02KT 9999 FEW040 28/02 Q1013
Pressure 29.92 in
Visibility 6.2 miles
Clouds Few 4000 ft
Dew Point 36 °F
Humidity 19%
Rainfall 0.00 in
Snow Depth Not available.
6:03 AM 6:02 PM
Waning Crescent, 18% visible
METAR LTCL 261350Z VRB02KT 9999 FEW040 28/02 Q1013

10-Day Weather Forecast

×

Almanac

Astronomy

Sep. 26, 2016 Rise Set
Actual Time
Civil Twilight
Nautical Twilight
Astronomical Twilight
Moon
Length of Visible Light
Length of Day
Tomorrow will be .
, % of the Moon is Illuminated

Today's Extremes

Country Highs Country Lows

Community

WunderPhotos

Upload Photos

1,941,887 photos uploaded!

WunderBlog® & News

Nearby

Air Quality

  Air Quality AQ Index Pollutant
Not available.

Snow Depth

Station Depth Elevation

Earthquake Activity

City Distance Mag. Time & Date
Minimum magnitude displayed is 2.5.

Coastal Water Temperatures

Place Temperature

Stations

Nearby Weather Stations

Station Location Temp. Windchill Dew Point Humidity Wind Precip. Elev Updated Type